createdAt,value
2018-12-08T00:00:42.277Z,99.99
2018-12-08T00:01:42.262Z,99.99
2018-12-08T00:02:42.252Z,99.99
2018-12-08T00:03:42.248Z,99.99
2018-12-08T00:04:42.238Z,99.99
2018-12-08T00:05:42.223Z,99.88
2018-12-08T00:06:42.213Z,99.99
2018-12-08T00:07:42.203Z,99.99
2018-12-08T00:08:42.194Z,99.99
2018-12-08T00:09:42.189Z,99.99
2018-12-08T00:10:42.181Z,99.99
2018-12-08T00:11:42.534Z,99.99
2018-12-08T00:12:42.159Z,99.99
2018-12-08T00:13:42.146Z,99.99
2018-12-08T00:14:42.136Z,99.99
2018-12-08T00:15:42.128Z,99.99
2018-12-08T00:16:42.117Z,99.99
2018-12-08T00:17:42.112Z,99.99
2018-12-08T00:18:42.105Z,99.69
2018-12-08T00:19:42.091Z,99.99
2018-12-08T00:20:42.079Z,99.97
2018-12-08T00:21:42.074Z,99.21
2018-12-08T00:22:42.064Z,99.69
2018-12-08T00:23:42.054Z,99.97
2018-12-08T00:24:42.044Z,99.97
2018-12-08T00:25:42.030Z,99.99
2018-12-08T00:26:42.022Z,99.78
2018-12-08T00:27:42.012Z,99.97
2018-12-08T00:28:42.001Z,99.78
2018-12-08T00:29:41.997Z,99.99
2018-12-08T00:30:41.988Z,99.99
2018-12-08T00:31:41.980Z,99.88
2018-12-08T00:32:41.966Z,99.21
2018-12-08T00:33:41.952Z,99.97
2018-12-08T00:34:41.943Z,99.59
2018-12-08T00:35:41.938Z,99.99
2018-12-08T00:36:42.055Z,99.88
2018-12-08T00:37:41.915Z,99.30
2018-12-08T00:38:41.905Z,99.99
2018-12-08T00:39:41.896Z,99.99
2018-12-08T00:40:41.885Z,99.36
2018-12-08T00:41:41.881Z,99.74
2018-12-08T00:42:41.872Z,99.99
2018-12-08T00:43:41.862Z,99.99
2018-12-08T00:44:41.853Z,99.99
2018-12-08T00:45:41.838Z,99.84
2018-12-08T00:46:41.828Z,99.45
2018-12-08T00:47:41.820Z,99.84
2018-12-08T00:48:41.811Z,99.26
2018-12-08T00:49:41.804Z,99.55
2018-12-08T00:50:41.796Z,99.74
2018-12-08T00:51:41.785Z,99.26
2018-12-08T00:52:41.772Z,99.74
2018-12-08T00:53:41.767Z,99.26
2018-12-08T00:54:41.759Z,99.55
2018-12-08T00:55:41.749Z,99.64
2018-12-08T00:56:41.740Z,99.99
2018-12-08T00:57:41.725Z,99.40
2018-12-08T00:58:41.715Z,99.55
2018-12-08T00:59:41.708Z,99.99
2018-12-08T01:00:41.697Z,99.74
2018-12-08T01:01:41.693Z,99.93
2018-12-08T01:02:41.683Z,99.99
2018-12-08T01:03:41.674Z,99.64
2018-12-08T01:04:41.662Z,99.93
2018-12-08T01:05:41.649Z,99.64
2018-12-08T01:06:41.644Z,99.55
2018-12-08T01:07:41.636Z,99.64
2018-12-08T01:08:41.626Z,99.45
2018-12-08T01:09:41.611Z,99.84
2018-12-08T01:10:41.602Z,99.36
2018-12-08T01:11:41.593Z,99.64
2018-12-08T01:12:41.583Z,99.36
2018-12-08T01:13:41.580Z,98.88
2018-12-08T01:14:41.569Z,98.88
2018-12-08T01:15:41.571Z,98.88
2018-12-08T01:16:41.549Z,98.79
2018-12-08T01:17:41.536Z,99.16
2018-12-08T01:18:41.531Z,99.26
2018-12-08T01:19:41.519Z,98.41
2018-12-08T01:20:41.507Z,98.41
2018-12-08T01:21:41.503Z,99.07
2018-12-08T01:22:41.493Z,98.50
2018-12-08T01:23:41.481Z,98.41
2018-12-08T01:24:41.471Z,98.60
2018-12-08T01:25:41.466Z,98.50
2018-12-08T01:26:41.457Z,98.50
2018-12-08T01:27:41.448Z,97.93
2018-12-08T01:28:41.437Z,98.12
2018-12-08T01:29:41.423Z,98.03
2018-12-08T01:30:41.422Z,98.31
2018-12-08T01:31:41.404Z,97.93
2018-12-08T01:32:41.395Z,98.12
2018-12-08T01:33:41.389Z,98.79
2018-12-08T01:34:41.381Z,98.97
2018-12-08T01:35:41.377Z,98.79
2018-12-08T01:36:41.366Z,98.88
2018-12-08T01:37:41.352Z,99.07
2018-12-08T01:38:41.344Z,98.88
2018-12-08T01:39:41.340Z,99.07
2018-12-08T01:40:41.332Z,98.69
2018-12-08T01:41:41.314Z,98.74
2018-12-08T01:42:41.304Z,99.30
2018-12-08T01:43:41.295Z,99.40
2018-12-08T01:44:41.287Z,99.21
2018-12-08T01:45:41.280Z,99.36
2018-12-08T01:46:41.271Z,99.30
2018-12-08T01:47:41.261Z,99.11
2018-12-08T01:48:41.256Z,98.83
2018-12-08T01:49:41.238Z,99.21
2018-12-08T01:50:41.228Z,99.21
2018-12-08T01:51:41.219Z,99.02
2018-12-08T01:52:41.210Z,99.50
2018-12-08T01:53:41.295Z,99.21
2018-12-08T01:54:41.195Z,99.50
2018-12-08T01:55:41.183Z,99.11
2018-12-08T01:56:41.172Z,99.21
2018-12-08T01:57:41.167Z,99.59
2018-12-08T01:58:41.158Z,99.30
2018-12-08T01:59:41.148Z,99.50
2018-12-08T02:00:41.139Z,99.02
2018-12-08T02:01:41.124Z,99.30
2018-12-08T02:02:41.115Z,99.21
2018-12-08T02:03:41.105Z,99.21
2018-12-08T02:04:41.095Z,99.50
2018-12-08T02:05:41.091Z,99.50
2018-12-08T02:06:41.081Z,99.59
2018-12-08T02:07:41.073Z,99.88
2018-12-08T02:08:41.062Z,99.50
2018-12-08T02:09:41.050Z,99.40
2018-12-08T02:10:41.039Z,99.21
2018-12-08T02:11:41.036Z,99.50
2018-12-08T02:12:41.024Z,99.69
2018-12-08T02:13:41.012Z,99.59
2018-12-08T02:14:41.003Z,99.30
2018-12-08T02:15:41.004Z,99.59
2018-12-08T02:16:40.981Z,99.50
2018-12-08T02:17:40.977Z,99.40
2018-12-08T02:18:40.969Z,98.93
2018-12-08T02:19:40.959Z,99.30
2018-12-08T02:20:40.950Z,99.59
2018-12-08T02:21:40.934Z,99.21
2018-12-08T02:22:40.926Z,99.21
2018-12-08T02:23:40.920Z,99.30
2018-12-08T02:24:40.906Z,99.30
2018-12-08T02:25:40.904Z,99.30
2018-12-08T02:26:40.893Z,99.30
2018-12-08T02:27:40.879Z,98.93
2018-12-08T02:28:40.868Z,99.30
2018-12-08T02:29:40.864Z,99.21
2018-12-08T02:30:40.856Z,99.59
2018-12-08T02:31:40.846Z,99.30
2018-12-08T02:32:40.835Z,99.30
2018-12-08T02:33:40.822Z,99.40
2018-12-08T02:34:40.812Z,99.30
2018-12-08T02:35:40.807Z,98.83
2018-12-08T02:36:40.791Z,99.11
2018-12-08T02:37:40.797Z,98.74
2018-12-08T02:38:42.197Z,98.69
2018-12-08T02:39:40.770Z,98.64
2018-12-08T02:40:40.759Z,98.74
2018-12-08T02:41:40.746Z,98.83
2018-12-08T02:42:40.736Z,99.02
2018-12-08T02:43:40.731Z,99.40
2018-12-08T02:44:40.722Z,98.64
2018-12-08T02:45:40.706Z,98.83
2018-12-08T02:46:40.697Z,98.93
2018-12-08T02:47:40.687Z,98.88
2018-12-08T02:48:40.682Z,99.36
2018-12-08T02:49:40.672Z,98.88
2018-12-08T02:50:40.663Z,98.79
2018-12-08T02:51:40.655Z,98.50
2018-12-08T02:52:40.645Z,99.55
2018-12-08T02:53:40.631Z,98.79
2018-12-08T02:54:40.621Z,98.41
2018-12-08T02:55:40.612Z,98.60
2018-12-08T02:56:40.603Z,98.12
2018-12-08T02:57:40.601Z,98.50
2018-12-08T02:58:40.590Z,98.03
2018-12-08T02:59:40.575Z,98.69
2018-12-08T03:00:40.565Z,98.41
2018-12-08T03:01:40.562Z,97.74
2018-12-08T03:02:40.553Z,98.12
2018-12-08T03:03:40.541Z,98.31
2018-12-08T03:04:40.531Z,97.83
2018-12-08T03:05:40.518Z,98.12
2018-12-08T03:06:40.510Z,97.93
2018-12-08T03:07:40.501Z,98.22
2018-12-08T03:08:40.492Z,97.93
2018-12-08T03:09:40.486Z,97.74
2018-12-08T03:10:40.478Z,98.12
2018-12-08T03:11:40.474Z,98.12
2018-12-08T03:12:40.459Z,97.83
2018-12-08T03:13:40.446Z,98.12
2018-12-08T03:14:40.436Z,97.93
2018-12-08T03:15:40.433Z,97.83
2018-12-08T03:16:40.425Z,97.93
2018-12-08T03:17:40.410Z,98.31
2018-12-08T03:18:40.400Z,98.12
2018-12-08T03:19:40.392Z,97.83
2018-12-08T03:20:40.381Z,97.93
2018-12-08T03:21:40.377Z,98.12
2018-12-08T03:22:40.367Z,98.03
2018-12-08T03:23:40.359Z,97.83
2018-12-08T03:24:40.349Z,98.12
2018-12-08T03:25:40.337Z,97.45
2018-12-08T03:26:40.328Z,97.27
2018-12-08T03:27:40.319Z,97.64
2018-12-08T03:28:40.308Z,97.27
2018-12-08T03:29:40.307Z,97.36
2018-12-08T03:30:40.297Z,97.55
2018-12-08T03:31:40.289Z,97.45
2018-12-08T03:32:40.273Z,97.64
2018-12-08T03:33:40.268Z,97.64
2018-12-08T03:34:40.260Z,97.64
2018-12-08T03:35:40.249Z,97.55
2018-12-08T03:36:40.242Z,97.27
2018-12-08T03:37:40.242Z,97.27
2018-12-08T03:38:40.219Z,97.08
2018-12-08T03:39:40.212Z,97.27
2018-12-08T03:40:40.200Z,97.17
2018-12-08T03:41:40.196Z,97.36
2018-12-08T03:42:40.188Z,97.45
2018-12-08T03:43:40.228Z,97.17
2018-12-08T03:44:40.169Z,97.64
2018-12-08T03:45:40.155Z,97.55
2018-12-08T03:46:40.147Z,97.17
2018-12-08T03:47:40.144Z,97.45
2018-12-08T03:48:40.132Z,97.83
2018-12-08T03:49:40.119Z,97.64
2018-12-08T03:50:40.112Z,97.08
2018-12-08T03:51:40.103Z,97.45
2018-12-08T03:52:40.093Z,97.27
2018-12-08T03:53:40.090Z,97.27
2018-12-08T03:54:40.081Z,97.36
2018-12-08T03:55:40.071Z,97.36
2018-12-08T03:56:40.060Z,97.22
2018-12-08T03:57:40.050Z,97.69
2018-12-08T03:58:40.039Z,97.03
2018-12-08T03:59:40.031Z,97.60
2018-12-08T04:00:40.023Z,97.69
2018-12-08T04:01:40.017Z,97.13
2018-12-08T04:02:40.008Z,97.22
2018-12-08T04:03:39.995Z,97.31
2018-12-08T04:04:39.987Z,97.03
2018-12-08T04:05:39.981Z,97.41
2018-12-08T04:06:39.972Z,97.22
2018-12-08T04:07:40.033Z,96.84
2018-12-08T04:08:39.956Z,97.31
2018-12-08T04:09:39.941Z,97.41
2018-12-08T04:10:39.933Z,97.31
2018-12-08T04:11:39.933Z,97.13
2018-12-08T04:12:39.916Z,97.13
2018-12-08T04:13:39.912Z,97.03
2018-12-08T04:14:39.903Z,97.22
2018-12-08T04:15:39.899Z,97.22
2018-12-08T04:16:39.884Z,97.41
2018-12-08T04:17:39.871Z,97.22
2018-12-08T04:18:39.861Z,96.94
2018-12-08T04:19:39.864Z,97.03
2018-12-08T04:20:39.848Z,96.46
2018-12-08T04:21:39.836Z,96.55
2018-12-08T04:22:39.827Z,97.22
2018-12-08T04:23:39.818Z,96.36
2018-12-08T04:24:39.812Z,96.84
2018-12-08T04:25:39.814Z,96.84
2018-12-08T04:26:39.796Z,98.17
2018-12-08T04:27:39.788Z,97.31
2018-12-08T04:28:39.779Z,97.50
2018-12-08T04:29:39.773Z,98.08
2018-12-08T04:30:39.756Z,98.17
2018-12-08T04:31:39.748Z,97.41
2018-12-08T04:32:39.739Z,97.41
2018-12-08T04:33:39.735Z,98.17
2018-12-08T04:34:39.727Z,97.41
2018-12-08T04:35:39.718Z,97.41
2018-12-08T04:36:39.704Z,97.50
2018-12-08T04:37:39.703Z,97.41
2018-12-08T04:38:39.693Z,97.22
2018-12-08T04:39:39.685Z,97.22
2018-12-08T04:40:39.676Z,97.60
2018-12-08T04:41:39.662Z,97.31
2018-12-08T04:42:39.652Z,96.84
2018-12-08T04:43:39.667Z,97.03
2018-12-08T04:44:39.633Z,97.31
2018-12-08T04:45:39.632Z,97.22
2018-12-08T04:46:39.624Z,97.22
2018-12-08T04:47:39.623Z,97.50
2018-12-08T04:48:39.604Z,97.22
2018-12-08T04:49:39.591Z,97.31
2018-12-08T04:50:39.586Z,98.08
2018-12-08T04:51:39.578Z,98.46
2018-12-08T04:52:39.570Z,98.17
2018-12-08T04:53:39.556Z,98.46
2018-12-08T04:54:39.547Z,98.55
2018-12-08T04:55:39.539Z,97.79
2018-12-08T04:56:39.531Z,98.17
2018-12-08T04:57:39.527Z,98.55
2018-12-08T04:58:39.517Z,98.36
2018-12-08T04:59:39.510Z,98.08
2018-12-08T05:00:39.500Z,97.79
2018-12-08T05:01:39.487Z,97.88
2018-12-08T05:02:39.480Z,98.36
2018-12-08T05:03:39.474Z,98.36
2018-12-08T05:04:39.461Z,98.08
2018-12-08T05:05:39.456Z,97.98
2018-12-08T05:06:39.449Z,98.36
2018-12-08T05:07:39.436Z,97.41
2018-12-08T05:08:39.428Z,97.41
2018-12-08T05:09:39.424Z,97.50
2018-12-08T05:10:39.416Z,97.79
2018-12-08T05:11:39.405Z,97.69
2018-12-08T05:12:39.395Z,97.69
2018-12-08T05:13:39.383Z,97.50
2018-12-08T05:14:39.376Z,97.41
2018-12-08T05:15:39.366Z,97.60
2018-12-08T05:16:39.356Z,97.27
2018-12-08T05:17:39.352Z,96.84
2018-12-08T05:18:39.345Z,97.50
2018-12-08T05:19:39.337Z,97.41
2018-12-08T05:20:39.328Z,96.84
2018-12-08T05:21:39.314Z,97.13
2018-12-08T05:22:39.305Z,97.13
2018-12-08T05:23:39.303Z,97.22
2018-12-08T05:24:39.294Z,97.08
2018-12-08T05:25:39.281Z,97.03
2018-12-08T05:26:39.271Z,96.89
2018-12-08T05:27:39.263Z,97.46
2018-12-08T05:28:39.255Z,97.27
2018-12-08T05:29:39.250Z,97.27
2018-12-08T05:30:39.242Z,96.70
2018-12-08T05:31:39.233Z,97.27
2018-12-08T05:32:39.224Z,97.41
2018-12-08T05:33:39.211Z,97.17
2018-12-08T05:34:39.205Z,97.46
2018-12-08T05:35:39.195Z,97.08
2018-12-08T05:36:39.186Z,96.84
2018-12-08T05:37:39.186Z,97.55
2018-12-08T05:38:39.175Z,97.08
2018-12-08T05:39:39.162Z,97.36
2018-12-08T05:40:39.152Z,97.27
2018-12-08T05:41:39.149Z,96.89
2018-12-08T05:42:39.141Z,96.60
2018-12-08T05:43:39.132Z,96.79
2018-12-08T05:44:39.123Z,96.41
2018-12-08T05:45:39.109Z,96.22
2018-12-08T05:46:39.100Z,96.89
2018-12-08T05:47:39.093Z,97.17
2018-12-08T05:48:39.083Z,97.08
2018-12-08T05:49:39.080Z,96.89
2018-12-08T05:50:39.073Z,96.41
2018-12-08T05:51:39.064Z,96.51
2018-12-08T05:52:39.058Z,96.79
2018-12-08T05:53:39.041Z,97.65
2018-12-08T05:54:39.033Z,97.46
2018-12-08T05:55:39.030Z,96.89
2018-12-08T05:56:39.022Z,97.27
2018-12-08T05:57:39.008Z,96.98
2018-12-08T05:58:38.999Z,96.89
2018-12-08T05:59:38.991Z,96.79
2018-12-08T06:00:38.982Z,96.89
2018-12-08T06:01:38.981Z,96.79
2018-12-08T06:02:38.973Z,96.31
2018-12-08T06:03:38.964Z,96.79
2018-12-08T06:04:38.954Z,96.51
2018-12-08T06:05:38.940Z,97.08
2018-12-08T06:06:38.932Z,96.41
2018-12-08T06:07:38.924Z,96.31
2018-12-08T06:08:38.914Z,96.22
2018-12-08T06:09:38.914Z,96.41
2018-12-08T06:10:38.902Z,96.51
2018-12-08T06:11:38.890Z,96.31
2018-12-08T06:12:38.881Z,96.51
2018-12-08T06:13:38.878Z,96.51
2018-12-08T06:14:40.078Z,96.22
2018-12-08T06:15:38.861Z,96.51
2018-12-08T06:16:38.853Z,96.89
2018-12-08T06:17:38.840Z,96.70
2018-12-08T06:18:38.833Z,96.79
2018-12-08T06:19:38.824Z,96.89
2018-12-08T06:20:38.920Z,96.51
2018-12-08T06:21:38.810Z,96.31
2018-12-08T06:22:38.803Z,96.70
2018-12-08T06:23:38.793Z,96.51
2018-12-08T06:24:38.785Z,96.60
2018-12-08T06:25:38.778Z,96.22
2018-12-08T06:26:38.783Z,96.51
2018-12-08T06:27:38.759Z,96.79
2018-12-08T06:28:39.002Z,96.60
2018-12-08T06:29:38.739Z,96.60
2018-12-08T06:30:38.729Z,97.08
2018-12-08T06:31:38.722Z,96.41
2018-12-08T06:32:38.712Z,96.41
2018-12-08T06:33:38.709Z,96.60
2018-12-08T06:34:38.702Z,96.89
2018-12-08T06:35:38.693Z,96.51
2018-12-08T06:36:38.683Z,96.70
2018-12-08T06:37:38.671Z,96.31
2018-12-08T06:38:38.663Z,96.41
2018-12-08T06:39:38.656Z,96.70
2018-12-08T06:40:38.646Z,96.31
2018-12-08T06:41:38.641Z,96.89
2018-12-08T06:42:38.636Z,96.51
2018-12-08T06:43:38.619Z,96.41
2018-12-08T06:44:38.614Z,96.60
2018-12-08T06:45:38.606Z,96.31
2018-12-08T06:46:38.599Z,96.89
2018-12-08T06:47:38.591Z,96.22
2018-12-08T06:48:38.582Z,96.41
2018-12-08T06:49:38.569Z,96.79
2018-12-08T06:50:38.561Z,96.51
2018-12-08T06:51:38.557Z,96.79
2018-12-08T06:52:38.548Z,96.60
2018-12-08T06:53:38.538Z,96.70
2018-12-08T06:54:38.527Z,96.31
2018-12-08T06:55:38.520Z,96.31
2018-12-08T06:56:38.509Z,96.79
2018-12-08T06:57:38.506Z,96.98
2018-12-08T06:58:38.499Z,96.22
2018-12-08T06:59:38.484Z,96.89
2018-12-08T07:00:38.475Z,96.31
2018-12-08T07:01:38.473Z,96.22
2018-12-08T07:02:38.466Z,96.79
2018-12-08T07:03:38.455Z,96.41
2018-12-08T07:04:38.448Z,96.22
2018-12-08T07:05:38.433Z,96.31
2018-12-08T07:06:38.424Z,96.79
2018-12-08T07:07:38.418Z,97.36
2018-12-08T07:08:38.407Z,98.03
2018-12-08T07:09:38.404Z,97.79
2018-12-08T07:10:38.395Z,98.55
2018-12-08T07:11:38.388Z,99.31
2018-12-08T07:12:38.379Z,99.50
2018-12-08T07:13:38.364Z,99.69
2018-12-08T07:14:38.357Z,99.60
2018-12-08T07:15:38.354Z,99.88
2018-12-08T07:16:38.344Z,99.99
2018-12-08T07:17:38.330Z,99.99
2018-12-08T07:18:38.324Z,99.79
2018-12-08T07:19:38.313Z,99.99
2018-12-08T07:20:38.305Z,99.99
2018-12-08T07:21:38.301Z,99.99
2018-12-08T07:22:38.292Z,99.98
2018-12-08T07:23:38.285Z,99.88
2018-12-08T07:24:38.274Z,99.88
2018-12-08T07:25:38.262Z,99.99
2018-12-08T07:26:38.259Z,99.99
2018-12-08T07:27:38.248Z,99.99
2018-12-08T07:28:38.237Z,99.99
2018-12-08T07:29:38.233Z,99.99
2018-12-08T07:30:38.231Z,99.99
2018-12-08T07:31:38.215Z,99.99
2018-12-08T07:32:38.924Z,99.99
2018-12-08T07:33:38.198Z,99.99
2018-12-08T07:34:38.190Z,99.99
2018-12-08T07:35:38.180Z,99.99
2018-12-08T07:36:38.170Z,99.99
2018-12-08T07:37:38.159Z,99.99
2018-12-08T07:38:38.149Z,99.99
2018-12-08T07:39:38.142Z,99.99
2018-12-08T07:40:38.132Z,99.99
2018-12-08T07:41:38.127Z,99.99
2018-12-08T07:42:38.120Z,99.99
2018-12-08T07:43:38.111Z,99.99
2018-12-08T07:44:38.102Z,99.99
2018-12-08T07:45:38.089Z,99.99
2018-12-08T07:46:38.079Z,99.99
2018-12-08T07:47:38.077Z,99.99
2018-12-08T07:48:38.067Z,99.99
2018-12-08T07:49:38.053Z,99.99
2018-12-08T07:50:38.044Z,99.99
2018-12-08T07:51:38.036Z,99.99
2018-12-08T07:52:38.025Z,99.99
2018-12-08T07:53:38.024Z,99.99
2018-12-08T07:54:38.013Z,99.99
2018-12-08T07:55:38.005Z,99.99
2018-12-08T07:56:37.999Z,99.99
2018-12-08T07:57:37.982Z,99.99
2018-12-08T07:58:37.974Z,99.99
2018-12-08T07:59:37.965Z,99.99
2018-12-08T08:00:37.956Z,99.99
2018-12-08T08:01:37.953Z,99.99
2018-12-08T08:02:37.943Z,99.99
2018-12-08T08:03:37.931Z,99.99
2018-12-08T08:04:37.921Z,99.99
2018-12-08T08:05:37.917Z,99.99
2018-12-08T08:06:37.908Z,99.99
2018-12-08T08:07:37.901Z,99.99
2018-12-08T08:08:37.891Z,99.99
2018-12-08T08:09:37.878Z,99.99
2018-12-08T08:10:37.870Z,99.99
2018-12-08T08:11:37.862Z,99.99
2018-12-08T08:12:37.851Z,99.99
2018-12-08T08:13:37.848Z,99.99
2018-12-08T08:14:37.839Z,99.99
2018-12-08T08:15:37.830Z,99.99
2018-12-08T08:16:37.821Z,99.99
2018-12-08T08:17:37.807Z,99.99
2018-12-08T08:18:37.799Z,99.99
2018-12-08T08:19:37.794Z,99.99
2018-12-08T08:20:37.786Z,99.99
2018-12-08T08:21:37.772Z,99.99
2018-12-08T08:22:37.764Z,99.99
2018-12-08T08:23:37.756Z,99.99
2018-12-08T08:24:37.746Z,99.99
2018-12-08T08:25:37.743Z,99.99
2018-12-08T08:26:37.735Z,99.99
2018-12-08T08:27:37.734Z,99.99
2018-12-08T08:28:37.717Z,99.99
2018-12-08T08:29:37.705Z,99.99
2018-12-08T08:30:37.696Z,99.99
2018-12-08T08:31:37.687Z,99.99
2018-12-08T08:32:37.680Z,99.99
2018-12-08T08:33:37.674Z,99.99
2018-12-08T08:34:37.665Z,99.46
2018-12-08T08:35:37.653Z,99.99
2018-12-08T08:36:37.645Z,99.99
2018-12-08T08:37:37.641Z,99.99
2018-12-08T08:38:37.632Z,99.99
2018-12-08T08:39:37.625Z,99.99
2018-12-08T08:40:37.615Z,99.99
2018-12-08T08:41:37.603Z,99.99
2018-12-08T08:42:37.594Z,99.99
2018-12-08T08:43:37.587Z,99.99
2018-12-08T08:44:37.578Z,99.99
2018-12-08T08:45:37.575Z,99.99
2018-12-08T08:46:37.566Z,99.99
2018-12-08T08:47:37.557Z,99.99
2018-12-08T08:48:37.548Z,99.99
2018-12-08T08:49:37.535Z,99.99
2018-12-08T08:50:37.528Z,99.99
2018-12-08T08:51:37.524Z,99.99
2018-12-08T08:52:37.515Z,99.99
2018-12-08T08:53:37.502Z,99.99
2018-12-08T08:54:37.494Z,99.99
2018-12-08T08:55:37.487Z,99.99
2018-12-08T08:56:37.478Z,99.99
2018-12-08T08:57:37.475Z,99.99
2018-12-08T08:58:37.466Z,99.99
2018-12-08T08:59:37.462Z,99.99
2018-12-08T09:00:37.447Z,99.99
2018-12-08T09:01:37.435Z,99.99
2018-12-08T09:02:37.427Z,99.99
2018-12-08T09:03:37.420Z,99.99
2018-12-08T09:04:37.412Z,99.99
2018-12-08T09:05:37.407Z,99.99
2018-12-08T09:06:37.400Z,99.99
2018-12-08T09:07:37.386Z,99.99
2018-12-08T09:08:37.382Z,99.99
2018-12-08T09:09:37.373Z,99.99
2018-12-08T09:10:37.366Z,99.99
2018-12-08T09:11:37.358Z,99.99
2018-12-08T09:12:37.347Z,99.99
2018-12-08T09:13:37.336Z,99.99
2018-12-08T09:14:37.327Z,99.99
2018-12-08T09:15:37.327Z,99.99
2018-12-08T09:16:37.309Z,99.99
2018-12-08T09:17:37.307Z,99.99
2018-12-08T09:18:37.299Z,99.99
2018-12-08T09:19:37.291Z,99.99
2018-12-08T09:20:37.282Z,99.99
2018-12-08T09:21:37.269Z,99.99
2018-12-08T09:22:37.264Z,99.99
2018-12-08T09:23:37.258Z,99.99
2018-12-08T09:24:37.248Z,99.99
2018-12-08T09:25:37.236Z,99.99
2018-12-08T09:26:37.226Z,99.99
2018-12-08T09:27:37.218Z,99.99
2018-12-08T09:28:37.211Z,99.99
2018-12-08T09:29:37.207Z,99.99
2018-12-08T09:30:37.197Z,99.99
2018-12-08T09:31:37.189Z,99.99
2018-12-08T09:32:37.183Z,99.99
2018-12-08T09:33:37.168Z,99.99
2018-12-08T09:34:37.164Z,99.99
2018-12-08T09:35:37.154Z,99.99
2018-12-08T09:36:37.143Z,99.99
2018-12-08T09:37:37.142Z,99.99
2018-12-08T09:38:37.135Z,99.99
2018-12-08T09:39:37.119Z,99.99
2018-12-08T09:40:37.109Z,99.99
2018-12-08T09:41:37.155Z,99.99
2018-12-08T09:42:37.097Z,99.99
2018-12-08T09:43:37.089Z,99.99
2018-12-08T09:44:37.082Z,99.99
2018-12-08T09:45:41.801Z,99.99
2018-12-08T09:46:37.061Z,99.99
2018-12-08T09:47:37.053Z,99.99
2018-12-08T09:48:37.043Z,99.99
2018-12-08T09:49:37.042Z,99.99
2018-12-08T09:50:37.034Z,99.99
2018-12-08T09:51:37.025Z,99.99
2018-12-08T09:52:37.023Z,99.99
2018-12-08T09:53:37.003Z,99.99
2018-12-08T09:54:36.998Z,99.99
2018-12-08T09:55:36.995Z,99.99
2018-12-08T09:56:36.984Z,99.99
2018-12-08T09:57:37.035Z,99.99
2018-12-08T09:58:36.963Z,99.99
2018-12-08T09:59:36.956Z,99.99
2018-12-08T10:00:36.944Z,99.99
2018-12-08T10:01:36.941Z,99.99
2018-12-08T10:02:36.933Z,99.99
2018-12-08T10:03:36.928Z,99.99
2018-12-08T10:04:36.917Z,99.99
2018-12-08T10:05:36.914Z,99.99
2018-12-08T10:06:36.896Z,99.99
2018-12-08T10:07:36.889Z,99.99
2018-12-08T10:08:36.879Z,99.99
2018-12-08T10:09:36.882Z,99.99
2018-12-08T10:10:36.869Z,99.99
2018-12-08T10:11:36.857Z,99.99
2018-12-08T10:12:36.848Z,99.99
2018-12-08T10:13:36.846Z,99.99
2018-12-08T10:14:36.836Z,99.99
2018-12-08T10:15:36.829Z,99.99
2018-12-08T10:16:36.821Z,99.99
2018-12-08T10:17:36.810Z,99.99
2018-12-08T10:18:36.801Z,99.99
2018-12-08T10:19:36.800Z,99.99
2018-12-08T10:20:36.783Z,99.99
2018-12-08T10:21:36.781Z,99.99
2018-12-08T10:22:36.773Z,99.99
2018-12-08T10:23:36.768Z,99.99
2018-12-08T10:24:36.756Z,99.99
2018-12-08T10:25:36.743Z,99.99
2018-12-08T10:26:36.736Z,99.99
2018-12-08T10:27:36.732Z,99.99
2018-12-08T10:28:36.724Z,99.99
2018-12-08T10:29:36.712Z,99.99
2018-12-08T10:30:36.704Z,99.99
2018-12-08T10:31:36.697Z,99.99
2018-12-08T10:32:36.686Z,99.99
2018-12-08T10:33:36.685Z,99.99
2018-12-08T10:34:36.676Z,99.99
2018-12-08T10:35:36.669Z,99.99
2018-12-08T10:36:36.661Z,99.99
2018-12-08T10:37:36.647Z,99.99
2018-12-08T10:38:36.640Z,99.99
2018-12-08T10:39:36.634Z,99.99
2018-12-08T10:40:36.627Z,99.99
2018-12-08T10:41:36.620Z,99.99
2018-12-08T10:42:36.613Z,99.99
2018-12-08T10:43:36.601Z,99.99
2018-12-08T10:44:36.592Z,99.99
2018-12-08T10:45:36.588Z,99.99
2018-12-08T10:46:36.583Z,99.99
2018-12-08T10:47:36.573Z,99.99
2018-12-08T10:48:36.566Z,99.99
2018-12-08T10:49:36.552Z,99.99
2018-12-08T10:50:36.545Z,99.99
2018-12-08T10:51:36.538Z,99.99
2018-12-08T10:52:36.527Z,99.99
2018-12-08T10:53:36.526Z,99.99
2018-12-08T10:54:36.520Z,99.99
2018-12-08T10:55:36.511Z,99.99
2018-12-08T10:56:36.501Z,99.99
2018-12-08T10:57:36.498Z,99.99
2018-12-08T10:58:36.484Z,99.99
2018-12-08T10:59:36.479Z,99.99
2018-12-08T11:00:36.470Z,99.99
2018-12-08T11:01:36.458Z,99.99
2018-12-08T11:02:36.451Z,99.99
2018-12-08T11:03:36.444Z,99.99
2018-12-08T11:04:36.435Z,99.99
2018-12-08T11:05:36.432Z,99.99
2018-12-08T11:06:36.427Z,99.99
2018-12-08T11:07:36.419Z,99.99
2018-12-08T11:08:36.411Z,99.99
2018-12-08T11:09:36.399Z,99.84
2018-12-08T11:10:36.392Z,99.65
2018-12-08T11:11:36.383Z,99.65
2018-12-08T11:12:37.525Z,99.18
2018-12-08T11:13:36.372Z,99.84
2018-12-08T11:14:36.365Z,99.27
2018-12-08T11:15:36.354Z,99.08
2018-12-08T11:16:36.346Z,98.99
2018-12-08T11:17:36.344Z,99.08
2018-12-08T11:18:36.384Z,99.08
2018-12-08T11:19:36.329Z,98.60
2018-12-08T11:20:36.322Z,98.13
2018-12-08T11:21:36.311Z,98.32
2018-12-08T11:22:36.302Z,98.32
2018-12-08T11:23:36.296Z,98.18
2018-12-08T11:24:36.288Z,98.85
2018-12-08T11:25:36.285Z,98.56
2018-12-08T11:26:36.280Z,97.80
2018-12-08T11:27:36.273Z,98.18
2018-12-08T11:28:36.264Z,98.27
2018-12-08T11:29:36.252Z,97.22
2018-12-08T11:30:36.247Z,97.80
2018-12-08T11:31:36.246Z,97.41
2018-12-08T11:32:36.235Z,96.94
2018-12-08T11:33:36.224Z,97.13
2018-12-08T11:34:36.218Z,96.84
2018-12-08T11:35:36.211Z,97.41
2018-12-08T11:36:36.203Z,96.65
2018-12-08T11:37:36.201Z,97.13
2018-12-08T11:38:36.195Z,96.94
2018-12-08T11:39:36.190Z,96.84
2018-12-08T11:40:36.181Z,97.13
2018-12-08T11:41:36.169Z,96.84
2018-12-08T11:42:36.166Z,96.65
2018-12-08T11:43:36.159Z,96.46
2018-12-08T11:44:36.148Z,96.75
2018-12-08T11:45:36.146Z,96.46
2018-12-08T11:46:36.142Z,96.65
2018-12-08T11:47:36.132Z,95.79
2018-12-08T11:48:36.123Z,96.36
2018-12-08T11:49:36.120Z,96.65
2018-12-08T11:50:36.155Z,96.56
2018-12-08T11:51:36.108Z,95.98
2018-12-08T11:52:36.100Z,96.65
2018-12-08T11:53:36.088Z,96.84
2018-12-08T11:54:36.082Z,96.56
2018-12-08T11:55:36.082Z,96.36
2018-12-08T11:56:36.068Z,96.75
2018-12-08T11:57:36.067Z,96.84
2018-12-08T11:58:36.062Z,96.46
2018-12-08T11:59:36.054Z,96.65
2018-12-08T12:00:36.045Z,96.56
2018-12-08T12:01:36.043Z,96.65
2018-12-08T12:02:36.027Z,96.56
2018-12-08T12:03:36.027Z,96.36
2018-12-08T12:04:36.018Z,96.46
2018-12-08T12:05:36.007Z,95.98
2018-12-08T12:06:36.002Z,95.98
2018-12-08T12:07:35.995Z,96.17
2018-12-08T12:08:35.986Z,96.17
2018-12-08T12:09:35.985Z,95.98
2018-12-08T12:10:35.979Z,95.70
2018-12-08T12:11:35.982Z,95.51
2018-12-08T12:12:35.986Z,94.74
2018-12-08T12:13:35.956Z,94.93
2018-12-08T12:14:35.946Z,94.93
2018-12-08T12:15:35.941Z,95.22
2018-12-08T12:16:35.934Z,94.84
2018-12-08T12:17:35.931Z,94.84
2018-12-08T12:18:35.925Z,95.32
2018-12-08T12:19:35.912Z,94.84
2018-12-08T12:20:35.905Z,94.74
2018-12-08T12:21:35.903Z,94.84
2018-12-08T12:22:35.918Z,94.37
2018-12-08T12:23:35.889Z,94.37
2018-12-08T12:24:35.882Z,94.17
2018-12-08T12:25:35.870Z,94.74
2018-12-08T12:26:35.863Z,94.37
2018-12-08T12:27:35.858Z,94.74
2018-12-08T12:28:35.849Z,94.37
2018-12-08T12:29:35.847Z,94.27
2018-12-08T12:30:35.839Z,94.46
2018-12-08T12:31:35.835Z,94.56
2018-12-08T12:32:35.828Z,94.56
2018-12-08T12:33:35.815Z,94.08
2018-12-08T12:34:35.808Z,94.37
2018-12-08T12:35:35.808Z,93.51
2018-12-08T12:36:35.799Z,94.37
2018-12-08T12:37:35.788Z,94.46
2018-12-08T12:38:35.781Z,94.46
2018-12-08T12:39:35.773Z,94.17
2018-12-08T12:40:35.766Z,93.98
2018-12-08T12:41:35.762Z,94.46
2018-12-08T12:42:35.757Z,93.98
2018-12-08T12:43:35.751Z,93.98
2018-12-08T12:44:35.743Z,94.74
2018-12-08T12:45:35.734Z,94.37
2018-12-08T12:46:35.725Z,93.51
2018-12-08T12:47:35.719Z,94.46
2018-12-08T12:48:35.716Z,93.41
2018-12-08T12:49:35.715Z,93.79
2018-12-08T12:50:35.702Z,93.03
2018-12-08T12:51:35.698Z,93.70
2018-12-08T12:52:35.683Z,93.32